Time;durP1;ratioP1;P1;durP2;ratioP2;P2;SDS_P1;SDS_P2;PMS_P1;PMS_P2;Temp;Humidity;BMP_temperature;BMP_pressure;BME280_temperature;BME280_humidity;BME280_pressure;Samples;Min_cycle;Max_cycle;Signal;HPM_P1;HPM_P2
2022/07/15 00:01:28;;;;;;;9.10;5.45;;;;;;;;;;7315291;19;154419;-16
2022/07/15 00:04:00;;;;;;;10.98;6.13;;;;;;;;;;7316842;19;162610;-16
2022/07/15 00:06:31;;;;;;;10.35;6.20;;;;;;;;;;7316459;19;163404;-16
2022/07/15 00:09:02;;;;;;;8.60;5.85;;;;;;;;;;7315264;19;155219;-17
2022/07/15 00:11:33;;;;;;;9.68;5.88;;;;;;;;;;7316112;19;154034;-16
2022/07/15 00:14:04;;;;;;;10.70;5.72;;;;;;;;;;7316284;19;162286;-16
2022/07/15 00:16:38;;;;;;;10.57;5.85;;;;;;;;;;7316193;19;163138;-16
2022/07/15 00:19:09;;;;;;;10.23;5.68;;;;;;;;;;7316719;19;154790;-16
2022/07/15 00:21:41;;;;;;;8.55;5.65;;;;;;;;;;7316570;19;154113;-17
2022/07/15 00:24:12;;;;;;;12.18;5.60;;;;;;;;;;7314915;19;162422;-15
2022/07/15 00:26:43;;;;;;;8.15;4.90;;;;;;;;;;7315741;19;163273;-15
2022/07/15 00:29:14;;;;;;;10.15;5.45;;;;;;;;;;7316123;19;154434;-17
2022/07/15 00:31:48;;;;;;;10.70;5.55;;;;;;;;;;7315326;19;153933;-16
2022/07/15 00:34:22;;;;;;;11.27;6.07;;;;;;;;;;7314176;19;162736;-16
2022/07/15 00:36:54;;;;;;;9.10;5.38;;;;;;;;;;7314006;19;163458;-16
2022/07/15 00:39:25;;;;;;;10.13;5.03;;;;;;;;;;7314225;19;154597;-16
2022/07/15 00:41:57;;;;;;;9.02;5.78;;;;;;;;;;7313376;19;153978;-16
2022/07/15 00:44:28;;;;;;;10.82;5.82;;;;;;;;;;7315480;19;162389;-17
2022/07/15 00:47:02;;;;;;;7.80;5.03;;;;;;;;;;7315331;19;162985;-17
2022/07/15 00:49:33;;;;;;;9.02;5.15;;;;;;;;;;7315855;19;155017;-17
2022/07/15 00:52:06;;;;;;;7.82;5.47;;;;;;;;;;7314971;19;154337;-16
2022/07/15 00:54:39;;;;;;;10.70;5.72;;;;;;;;;;7313177;19;162914;-17
2022/07/15 00:57:10;;;;;;;;;;;;;;;;;;7314856;19;163229;-16
2022/07/15 00:59:42;;;;;;;7.32;4.88;;;;;;;;;;7314343;19;154780;-17
2022/07/15 01:02:17;;;;;;;7.93;4.85;;;;;;;;;;7315000;19;154373;-17
2022/07/15 01:04:49;;;;;;;11.77;5.70;;;;;;;;;;7314777;19;162212;-17
2022/07/15 01:07:20;;;;;;;10.63;5.22;;;;;;;;;;7313112;19;162847;-16
2022/07/15 01:09:52;;;;;;;10.73;4.97;;;;;;;;;;7313665;19;154566;-17
2022/07/15 01:12:24;;;;;;;8.02;5.13;;;;;;;;;;7312813;19;154514;-17
2022/07/15 01:14:59;;;;;;;8.15;5.25;;;;;;;;;;7314433;19;162175;-17
2022/07/15 01:17:36;;;;;;;8.48;5.03;;;;;;;;;;7313035;19;162812;-17
2022/07/15 01:20:12;;;;;;;9.18;4.18;;;;;;;;;;7313957;19;154830;-16
2022/07/15 01:22:57;;;;;;;4.53;3.92;;;;;;;;;;7313228;19;154126;-16
2022/07/15 01:25:35;;;;;;;8.32;4.50;;;;;;;;;;7313119;19;162682;-18
2022/07/15 01:28:12;;;;;;;7.85;4.75;;;;;;;;;;7313141;19;162959;-17
2022/07/15 01:30:47;;;;;;;7.93;4.25;;;;;;;;;;7313399;19;154672;-17
2022/07/15 01:33:19;;;;;;;;;;;;;;;;;;7312019;19;154061;-18
2022/07/15 01:35:52;;;;;;;8.60;4.53;;;;;;;;;;7312469;19;162492;-17
2022/07/15 01:38:30;;;;;;;11.80;4.93;;;;;;;;;;7313060;19;162837;-17
2022/07/15 01:41:08;;;;;;;7.25;4.13;;;;;;;;;;7311894;19;154398;-16
2022/07/15 01:43:39;;;;;;;11.77;4.88;;;;;;;;;;7312821;19;154524;-17
2022/07/15 01:46:11;;;;;;;;;;;;;;;;;;7313455;19;162774;-17
2022/07/15 01:51:45;;;;;;;8.00;4.40;;;;;;;;;;7314224;19;154489;-17
2022/07/15 01:54:19;;;;;;;8.10;3.87;;;;;;;;;;7310583;19;154105;-16
2022/07/15 01:56:51;;;;;;;6.32;3.92;;;;;;;;;;7311983;19;162408;-17
2022/07/15 01:59:25;;;;;;;10.57;4.40;;;;;;;;;;7313760;19;162788;-16
2022/07/15 02:01:59;;;;;;;6.35;3.85;;;;;;;;;;7312500;19;154446;-17
2022/07/15 02:04:31;;;;;;;6.65;4.18;;;;;;;;;;7312011;19;153968;-17
2022/07/15 02:07:06;;;;;;;8.23;4.05;;;;;;;;;;7311291;19;162800;-16
2022/07/15 02:09:40;;;;;;;12.20;4.75;;;;;;;;;;7311660;19;162902;-16
2022/07/15 02:12:12;;;;;;;8.05;4.10;;;;;;;;;;7312015;19;154455;-17
2022/07/15 02:14:50;;;;;;;6.07;3.80;;;;;;;;;;7309462;19;155374;-16
2022/07/15 02:17:21;;;;;;;8.68;4.95;;;;;;;;;;7311244;19;162685;-16
2022/07/15 02:19:53;;;;;;;9.15;4.13;;;;;;;;;;7312919;19;163081;-17
2022/07/15 02:22:27;;;;;;;4.53;3.70;;;;;;;;;;7311823;19;154475;-17
2022/07/15 02:25:04;;;;;;;6.25;4.20;;;;;;;;;;7313263;19;154033;-16
2022/07/15 02:27:35;;;;;;;6.40;3.88;;;;;;;;;;7312731;19;162676;-16
2022/07/15 02:30:09;;;;;;;7.10;4.47;;;;;;;;;;7310953;19;163139;-16
2022/07/15 02:32:41;;;;;;;9.85;4.30;;;;;;;;;;7311359;19;154569;-16
2022/07/15 02:35:14;;;;;;;6.40;3.85;;;;;;;;;;7310009;19;154032;-17
2022/07/15 02:37:46;;;;;;;7.13;4.38;;;;;;;;;;7310475;19;162814;-17
2022/07/15 02:40:26;;;;;;;5.13;3.60;;;;;;;;;;7310437;19;162783;-17
2022/07/15 02:43:01;;;;;;;7.90;4.35;;;;;;;;;;7308088;19;154587;-17
2022/07/15 02:45:37;;;;;;;6.53;3.85;;;;;;;;;;7311271;19;154008;-16
2022/07/15 02:48:12;;;;;;;6.32;4.07;;;;;;;;;;7310699;19;162450;-17
2022/07/15 02:50:51;;;;;;;6.00;4.13;;;;;;;;;;7310737;19;162926;-17
2022/07/15 02:53:28;;;;;;;7.40;4.10;;;;;;;;;;7310310;19;154503;-17
2022/07/15 02:56:06;;;;;;;5.30;3.97;;;;;;;;;;7310899;19;154403;-16
2022/07/15 02:58:38;;;;;;;6.68;4.32;;;;;;;;;;7310750;19;162533;-15
2022/07/15 03:01:12;;;;;;;5.35;4.07;;;;;;;;;;7310126;19;162755;-16
2022/07/15 03:03:43;;;;;;;5.17;3.43;;;;;;;;;;7310574;19;155494;-16
2022/07/15 03:06:21;;;;;;;5.90;3.65;;;;;;;;;;7310320;19;153993;-17
2022/07/15 03:08:53;;;;;;;6.25;3.75;;;;;;;;;;7310421;19;162489;-19
2022/07/15 03:11:29;;;;;;;6.25;3.95;;;;;;;;;;7310266;19;163191;-17
2022/07/15 03:14:03;;;;;;;5.93;3.70;;;;;;;;;;7309849;19;154462;-17
2022/07/15 03:16:39;;;;;;;4.95;3.42;;;;;;;;;;7311705;19;154039;-17
2022/07/15 03:19:12;;;;;;;;;;;;;;;;;;7310722;19;162292;-17
2022/07/15 03:21:50;;;;;;;7.38;3.95;;;;;;;;;;7310330;19;163497;-17
2022/07/15 03:24:25;;;;;;;4.32;3.80;;;;;;;;;;7309785;19;155070;-16
2022/07/15 03:27:02;;;;;;;6.63;4.20;;;;;;;;;;7310454;19;153587;-17
2022/07/15 03:29:35;;;;;;;6.53;4.10;;;;;;;;;;7309371;19;162809;-16
2022/07/15 03:32:07;;;;;;;6.40;4.22;;;;;;;;;;7309072;19;163388;-16
2022/07/15 03:34:39;;;;;;;4.75;3.65;;;;;;;;;;7308165;19;155053;-17
2022/07/15 03:37:11;;;;;;;5.35;3.38;;;;;;;;;;7309205;19;153941;-17
2022/07/15 03:39:42;;;;;;;4.70;3.75;;;;;;;;;;7309287;19;162209;-17
2022/07/15 03:42:16;;;;;;;5.57;4.30;;;;;;;;;;7306332;19;163644;-15
2022/07/15 03:44:48;;;;;;;6.10;3.47;;;;;;;;;;7306685;19;155045;-15
2022/07/15 03:47:21;;;;;;;6.43;3.75;;;;;;;;;;7306886;19;154152;-16
2022/07/15 03:49:54;;;;;;;5.97;3.50;;;;;;;;;;7306769;19;162223;-16
2022/07/15 03:52:25;;;;;;;5.53;4.03;;;;;;;;;;7306666;19;163362;-17
2022/07/15 03:54:57;;;;;;;5.38;4.20;;;;;;;;;;7305427;19;154665;-16
2022/07/15 03:57:31;;;;;;;4.47;3.53;;;;;;;;;;7306517;19;154015;-17
2022/07/15 04:00:02;;;;;;;4.07;3.50;;;;;;;;;;7306426;19;162383;-16
2022/07/15 04:02:44;;;;;;;4.72;3.63;;;;;;;;;;7306413;19;162906;-16
2022/07/15 04:05:17;;;;;;;5.32;3.90;;;;;;;;;;7306623;19;154668;-16
2022/07/15 04:07:54;;;;;;;6.43;3.97;;;;;;;;;;7306400;19;154858;-16
2022/07/15 04:10:25;;;;;;;4.95;3.53;;;;;;;;;;7306079;19;162288;-16
2022/07/15 04:13:00;;;;;;;7.90;4.30;;;;;;;;;;7305847;19;163338;-16
2022/07/15 04:15:34;;;;;;;5.07;3.78;;;;;;;;;;7305139;19;154927;-16
2022/07/15 04:18:05;;;;;;;5.70;3.83;;;;;;;;;;7309105;19;154357;-16
2022/07/15 04:20:36;;;;;;;8.00;4.03;;;;;;;;;;7308238;19;162284;-16
2022/07/15 04:23:08;;;;;;;5.32;3.53;;;;;;;;;;7308819;19;163290;-16
2022/07/15 04:25:39;;;;;;;3.42;3.10;;;;;;;;;;7308928;19;154489;-16
2022/07/15 04:28:15;;;;;;;5.25;3.88;;;;;;;;;;7308083;19;154644;-17
2022/07/15 04:30:47;;;;;;;4.68;3.72;;;;;;;;;;7317181;19;162331;-17
2022/07/15 04:33:19;;;;;;;5.73;4.07;;;;;;;;;;7313859;19;162681;-16
2022/07/15 04:35:51;;;;;;;4.18;3.78;;;;;;;;;;7314082;19;155210;-17
2022/07/15 04:38:22;;;;;;;4.85;3.55;;;;;;;;;;7316897;19;153992;-17
2022/07/15 04:40:53;;;;;;;5.28;4.13;;;;;;;;;;7313160;19;162356;-17
2022/07/15 04:43:27;;;;;;;4.50;3.67;;;;;;;;;;7311681;19;163145;-17
2022/07/15 04:45:59;;;;;;;3.85;3.33;;;;;;;;;;7313640;19;154478;-17
2022/07/15 04:51:16;;;;;;;5.28;3.78;;;;;;;;;;7313766;19;163008;-17
2022/07/15 04:53:48;;;;;;;6.30;3.38;;;;;;;;;;7315075;19;162929;-17
2022/07/15 04:56:20;;;;;;;4.43;4.00;;;;;;;;;;7311995;19;154523;-16
2022/07/15 04:59:03;;;;;;;3.47;3.17;;;;;;;;;;7316133;19;154659;-17
2022/07/15 05:01:35;;;;;;;6.20;4.38;;;;;;;;;;7313410;19;162674;-17
2022/07/15 05:04:07;;;;;;;5.47;3.60;;;;;;;;;;7315708;19;165577;-16
2022/07/15 05:06:38;;;;;;;5.40;3.55;;;;;;;;;;7313316;19;155099;-16
2022/07/15 05:09:10;;;;;;;5.28;3.30;;;;;;;;;;7312441;19;154076;-17
2022/07/15 05:11:41;;;;;;;5.47;3.65;;;;;;;;;;7313367;19;162186;-17
2022/07/15 05:14:15;;;;;;;3.67;3.25;;;;;;;;;;7312476;19;163718;-17
2022/07/15 05:16:48;;;;;;;4.80;3.50;;;;;;;;;;7311516;19;154627;-15
2022/07/15 05:19:20;;;;;;;4.83;3.60;;;;;;;;;;7315134;19;154735;-17
2022/07/15 05:21:51;;;;;;;5.07;3.83;;;;;;;;;;7314394;19;162189;-17
2022/07/15 05:24:23;;;;;;;4.07;3.17;;;;;;;;;;7313440;19;162947;-17
2022/07/15 05:26:58;;;;;;;3.95;3.15;;;;;;;;;;7313400;19;154487;-16
2022/07/15 05:29:37;;;;;;;4.70;3.63;;;;;;;;;;7313211;19;154020;-16
2022/07/15 05:32:08;;;;;;;7.25;4.50;;;;;;;;;;7312903;19;162699;-17
2022/07/15 05:34:40;;;;;;;9.10;7.05;;;;;;;;;;7312648;19;163681;-17
2022/07/15 05:37:14;;;;;;;11.57;7.28;;;;;;;;;;7310888;19;154849;-16
2022/07/15 05:39:56;;;;;;;9.65;8.18;;;;;;;;;;7312121;19;154439;-17
2022/07/15 05:42:33;;;;;;;12.35;9.18;;;;;;;;;;7311306;19;162227;-17
2022/07/15 05:45:12;;;;;;;12.05;9.43;;;;;;;;;;7312270;19;163006;-16
2022/07/15 05:47:52;;;;;;;15.30;9.80;;;;;;;;;;7312741;19;154444;-17
2022/07/15 05:50:28;;;;;;;16.67;9.82;;;;;;;;;;7312643;19;154117;-16
2022/07/15 05:53:05;;;;;;;15.27;9.48;;;;;;;;;;7310321;19;162620;-16
2022/07/15 05:55:43;;;;;;;14.68;9.65;;;;;;;;;;7311321;19;163390;-16
2022/07/15 05:58:18;;;;;;;14.15;9.80;;;;;;;;;;7312163;19;155172;-16
2022/07/15 06:00:54;;;;;;;12.85;9.10;;;;;;;;;;7312411;19;153892;-17
2022/07/15 06:03:28;;;;;;;11.15;8.75;;;;;;;;;;7311663;19;162335;-17
2022/07/15 06:06:00;;;;;;;12.98;9.60;;;;;;;;;;7311986;19;162850;-16
2022/07/15 06:08:32;;;;;;;13.10;9.20;;;;;;;;;;7312172;19;154846;-17
2022/07/15 06:11:05;;;;;;;12.80;9.90;;;;;;;;;;7311821;19;153974;-17
2022/07/15 06:13:39;;;;;;;12.32;9.52;;;;;;;;;;7311819;19;162484;-17
2022/07/15 06:16:16;;;;;;;14.25;9.32;;;;;;;;;;7310621;19;162902;-17
2022/07/15 06:18:48;;;;;;;12.80;9.07;;;;;;;;;;7311746;19;154640;-17
2022/07/15 06:21:19;;;;;;;9.98;8.82;;;;;;;;;;7313042;19;154426;-17
2022/07/15 06:23:51;;;;;;;13.48;8.90;;;;;;;;;;7311478;19;162876;-17
2022/07/15 06:26:22;;;;;;;12.07;9.30;;;;;;;;;;7311123;19;163332;-16
2022/07/15 06:28:53;;;;;;;12.50;9.02;;;;;;;;;;7311772;19;154505;-16
2022/07/15 06:31:27;;;;;;;12.93;8.88;;;;;;;;;;7312997;19;153909;-16
2022/07/15 06:34:01;;;;;;;10.15;8.90;;;;;;;;;;7312401;19;162342;-16
2022/07/15 06:36:33;;;;;;;13.90;9.40;;;;;;;;;;7309895;19;162879;-18
2022/07/15 06:39:05;;;;;;;12.85;8.88;;;;;;;;;;7312668;19;155164;-16
2022/07/15 06:41:37;;;;;;;11.40;8.98;;;;;;;;;;7310046;19;154527;-16
2022/07/15 06:44:08;;;;;;;11.35;8.55;;;;;;;;;;7310502;19;162724;-16
2022/07/15 06:46:48;;;;;;;9.35;8.40;;;;;;;;;;7310857;19;162899;-16
2022/07/15 06:49:20;;;;;;;10.60;8.35;;;;;;;;;;7312423;19;154542;-18
2022/07/15 06:51:51;;;;;;;13.93;9.25;;;;;;;;;;7309525;19;154229;-16
2022/07/15 06:54:23;;;;;;;9.60;8.60;;;;;;;;;;7309941;19;162801;-16
2022/07/15 06:56:54;;;;;;;10.65;8.55;;;;;;;;;;7308733;19;162852;-16
2022/07/15 06:59:26;;;;;;;10.50;9.20;;;;;;;;;;7310668;19;154469;-16
2022/07/15 07:02:00;;;;;;;10.75;9.07;;;;;;;;;;7311954;19;153987;-16
2022/07/15 07:04:31;;;;;;;10.93;9.38;;;;;;;;;;7311986;19;162248;-16
2022/07/15 07:07:03;;;;;;;10.57;8.48;;;;;;;;;;7309850;19;163257;-15
2022/07/15 07:09:34;;;;;;;11.50;8.70;;;;;;;;;;7310171;19;154880;-16
2022/07/15 07:12:06;;;;;;;10.85;8.85;;;;;;;;;;7310329;19;154554;-16
2022/07/15 07:14:38;;;;;;;9.85;8.30;;;;;;;;;;7311320;19;162224;-16
2022/07/15 07:17:11;;;;;;;11.52;9.00;;;;;;;;;;7309655;19;162931;-16
2022/07/15 07:19:43;;;;;;;10.88;8.95;;;;;;;;;;7311193;19;154978;-16
2022/07/15 07:22:14;;;;;;;11.63;9.10;;;;;;;;;;7310014;19;154022;-16
2022/07/15 07:24:45;;;;;;;10.10;8.48;;;;;;;;;;7309242;19;162341;-16
2022/07/15 07:27:17;;;;;;;15.15;9.60;;;;;;;;;;7310797;19;163251;-16
2022/07/15 07:29:48;;;;;;;10.48;8.55;;;;;;;;;;7309971;19;154315;-16
2022/07/15 07:32:22;;;;;;;9.45;8.55;;;;;;;;;;7309379;19;154651;-16
2022/07/15 07:34:53;;;;;;;11.18;8.93;;;;;;;;;;7310648;19;162678;-16
2022/07/15 07:37:24;;;;;;;10.38;8.95;;;;;;;;;;7309265;19;163167;-15
2022/07/15 07:39:56;;;;;;;10.05;8.77;;;;;;;;;;7310906;19;154452;-16
2022/07/15 07:42:27;;;;;;;9.18;8.27;;;;;;;;;;7308914;19;154531;-16
2022/07/15 07:44:59;;;;;;;10.15;8.57;;;;;;;;;;7310326;19;162297;-16
2022/07/15 07:47:37;;;;;;;10.10;8.37;;;;;;;;;;7310191;19;162267;-16
2022/07/15 07:50:10;;;;;;;14.85;8.88;;;;;;;;;;7309075;19;154466;-16
2022/07/15 07:52:41;;;;;;;9.27;8.35;;;;;;;;;;7310163;19;154006;-16
2022/07/15 07:55:13;;;;;;;8.80;7.90;;;;;;;;;;7308134;19;162653;-16
2022/07/15 07:57:51;;;;;;;9.18;8.25;;;;;;;;;;7308609;19;163288;-16
2022/07/15 08:00:26;;;;;;;9.50;7.38;;;;;;;;;;7310341;19;154863;-16
2022/07/15 08:03:01;;;;;;;9.57;8.68;;;;;;;;;;7310096;19;154258;-16
2022/07/15 08:05:33;;;;;;;11.27;8.43;;;;;;;;;;7315602;19;161726;-17
2022/07/15 08:08:11;;;;;;;11.18;8.40;;;;;;;;;;7316679;19;162732;-17
2022/07/15 08:10:44;;;;;;;10.40;8.25;;;;;;;;;;7317269;19;155183;-16
2022/07/15 08:13:17;;;;;;;10.77;7.68;;;;;;;;;;7317797;19;154474;-17
2022/07/15 08:15:48;;;;;;;9.18;8.25;;;;;;;;;;7316607;19;162119;-16
2022/07/15 08:18:23;;;;;;;;;;;;;;;;;;7315677;19;163383;-16
2022/07/15 08:20:54;;;;;;;9.50;8.02;;;;;;;;;;7317274;19;154710;-16
2022/07/15 08:23:26;;;;;;;9.70;7.97;;;;;;;;;;7317028;19;153502;-17
2022/07/15 08:25:57;;;;;;;10.30;8.43;;;;;;;;;;7316387;19;162208;-16
2022/07/15 08:28:28;;;;;;;10.38;8.43;;;;;;;;;;7315891;19;162855;-17
2022/07/15 08:31:10;;;;;;;9.95;8.27;;;;;;;;;;7316346;19;154449;-17
2022/07/15 08:33:44;;;;;;;9.48;8.23;;;;;;;;;;7316495;19;154039;-18
2022/07/15 08:36:16;;;;;;;9.68;7.80;;;;;;;;;;7314537;19;162212;-17
2022/07/15 08:38:48;;;;;;;10.25;8.30;;;;;;;;;;7312054;19;162901;-17
2022/07/15 08:41:20;;;;;;;7.93;7.13;;;;;;;;;;7315312;19;154771;-17
2022/07/15 08:43:53;;;;;;;9.05;7.85;;;;;;;;;;7315933;19;153990;-17
2022/07/15 08:46:28;;;;;;;9.10;7.68;;;;;;;;;;7315608;19;162378;-17
2022/07/15 08:49:07;;;;;;;8.98;8.10;;;;;;;;;;7314150;19;162740;-17
2022/07/15 08:51:40;;;;;;;10.52;9.05;;;;;;;;;;7315657;19;154569;-17
2022/07/15 08:54:11;;;;;;;9.10;8.20;;;;;;;;;;7315558;19;154522;-17
2022/07/15 08:56:45;;;;;;;9.02;7.95;;;;;;;;;;7315022;19;162674;-17
2022/07/15 08:59:17;;;;;;;9.82;8.85;;;;;;;;;;7312799;19;163185;-17
2022/07/15 09:01:51;;;;;;;9.88;8.55;;;;;;;;;;7315344;19;154485;-18
2022/07/15 09:04:24;;;;;;;9.52;8.13;;;;;;;;;;7315280;19;154010;-17
2022/07/15 09:06:56;;;;;;;10.25;8.60;;;;;;;;;;7315047;19;162413;-17
2022/07/15 09:09:31;;;;;;;8.90;8.00;;;;;;;;;;7314623;19;162764;-17
2022/07/15 09:12:06;;;;;;;9.25;7.82;;;;;;;;;;7313618;19;154652;-17
2022/07/15 09:14:47;;;;;;;9.75;8.18;;;;;;;;;;7314745;19;155441;-17
2022/07/15 09:17:27;;;;;;;9.70;8.55;;;;;;;;;;7313403;19;162276;-17
2022/07/15 09:20:13;;;;;;;9.63;8.02;;;;;;;;;;7313029;19;163216;-17
2022/07/15 09:22:52;;;;;;;9.43;8.13;;;;;;;;;;7314918;19;155146;-17
2022/07/15 09:25:24;;;;;;;9.50;8.27;;;;;;;;;;7314836;19;154057;-17
2022/07/15 09:38:02;;;;;;;8.90;8.10;;;;;;;;;;7215116;19;136683;-15
2022/07/15 09:40:34;;;;;;;10.70;8.35;;;;;;;;;;7313211;19;162298;-15
2022/07/15 09:43:06;;;;;;;9.13;8.23;;;;;;;;;;7314276;19;163330;-15
2022/07/15 09:45:38;;;;;;;9.13;8.23;;;;;;;;;;7314581;19;154467;-15
2022/07/15 09:48:12;;;;;;;8.90;8.10;;;;;;;;;;7314731;19;153948;-15
2022/07/15 09:50:43;;;;;;;9.15;8.07;;;;;;;;;;7313897;19;162230;-15
2022/07/15 09:53:17;;;;;;;8.75;7.85;;;;;;;;;;7313987;19;162907;-15
2022/07/15 09:55:49;;;;;;;8.88;8.02;;;;;;;;;;7312872;19;154615;-15
2022/07/15 09:58:21;;;;;;;11.13;8.20;;;;;;;;;;7313625;19;154270;-15
2022/07/15 10:00:53;;;;;;;12.05;8.77;;;;;;;;;;7310120;19;162800;-16
2022/07/15 10:03:25;;;;;;;9.60;8.63;;;;;;;;;;7313683;19;163401;-15
2022/07/15 10:05:56;;;;;;;10.98;8.68;;;;;;;;;;7314183;19;154008;-14
2022/07/15 10:08:31;;;;;;;9.85;7.90;;;;;;;;;;7313820;19;154432;-15
2022/07/15 10:11:02;;;;;;;9.35;8.23;;;;;;;;;;7313220;19;162158;-15
2022/07/15 10:14:08;;;;;;;11.35;8.88;;;;;;;;;;7313116;19;163346;-15
2022/07/15 10:16:54;;;;;;;8.55;7.55;;;;;;;;;;7313340;19;154503;-15
2022/07/15 10:19:34;;;;;;;9.73;8.32;;;;;;;;;;7312074;19;153974;-15
2022/07/15 10:22:16;;;;;;;9.60;8.32;;;;;;;;;;7313045;19;162335;-15
2022/07/15 10:24:59;;;;;;;10.07;8.43;;;;;;;;;;7312325;19;163352;-15
2022/07/15 10:27:47;;;;;;;9.40;8.38;;;;;;;;;;7311454;19;154373;-15
2022/07/15 10:30:24;;;;;;;12.60;8.65;;;;;;;;;;7312778;19;154059;-15
2022/07/15 10:33:13;;;;;;;11.13;8.32;;;;;;;;;;7311741;19;162266;-15
2022/07/15 10:35:47;;;;;;;10.88;8.25;;;;;;;;;;7311761;19;163675;-15
2022/07/15 10:38:30;;;;;;;8.50;7.70;;;;;;;;;;7309699;19;154704;-15
2022/07/15 10:41:09;;;;;;;10.65;8.13;;;;;;;;;;7312853;19;154041;-15
2022/07/15 10:43:46;;;;;;;10.07;8.32;;;;;;;;;;7312242;19;162229;-15
2022/07/15 10:46:35;;;;;;;9.30;8.23;;;;;;;;;;7312466;19;162904;-15
2022/07/15 10:49:31;;;;;;;12.93;8.10;;;;;;;;;;7312385;19;154413;-12
2022/07/15 10:52:18;;;;;;;8.95;7.80;;;;;;;;;;7312509;19;154135;-12
2022/07/15 10:54:51;;;;;;;10.15;8.13;;;;;;;;;;7310281;19;162330;-12
2022/07/15 10:57:53;;;;;;;10.45;8.70;;;;;;;;;;7311650;19;162795;-12
2022/07/15 11:00:34;;;;;;;8.87;7.97;;;;;;;;;;7310135;19;155091;-14
2022/07/15 11:03:11;;;;;;;8.85;7.85;;;;;;;;;;7312292;19;153991;-15
2022/07/15 11:06:05;;;;;;;9.27;8.23;;;;;;;;;;7311099;19;162957;-14
2022/07/15 11:09:07;;;;;;;8.80;7.88;;;;;;;;;;7311789;19;162733;-14
2022/07/15 11:11:50;;;;;;;12.23;7.82;;;;;;;;;;7308299;19;155073;-14
2022/07/15 11:14:36;;;;;;;;;;;;;;;;;;7312164;19;154045;-15
2022/07/15 11:17:10;;;;;;;7.47;6.80;;;;;;;;;;7311649;19;162941;-15
2022/07/15 11:19:41;;;;;;;7.75;6.90;;;;;;;;;;7310177;19;162882;-15
2022/07/15 11:22:13;;;;;;;8.07;7.33;;;;;;;;;;7311708;19;154924;-15
2022/07/15 11:24:44;;;;;;;9.05;6.88;;;;;;;;;;7311365;19;153977;-15
2022/07/15 11:27:15;;;;;;;10.75;7.30;;;;;;;;;;7311004;19;162279;-15
2022/07/15 11:29:50;;;;;;;8.27;7.43;;;;;;;;;;7309426;19;162446;-15
2022/07/15 11:32:28;;;;;;;8.55;7.75;;;;;;;;;;7311664;19;154457;-15
2022/07/15 11:35:06;;;;;;;8.85;7.10;;;;;;;;;;7311025;19;154155;-15
2022/07/15 11:37:38;;;;;;;10.10;7.90;;;;;;;;;;7309384;19;162920;-15
2022/07/15 11:44:29;;;;;;;11.13;7.63;;;;;;;;;;7313795;19;162869;-15
2022/07/15 11:45:50;;;;;;;8.32;7.43;;;;;;;;;;7318118;19;153991;-15
2022/07/15 11:48:24;;;;;;;8.13;7.18;;;;;;;;;;7315673;19;162243;-15
2022/07/15 11:50:58;;;;;;;8.48;7.57;;;;;;;;;;7317368;19;163305;-15
2022/07/15 11:53:29;;;;;;;10.95;7.85;;;;;;;;;;7317113;19;154791;-15
2022/07/15 11:56:02;;;;;;;9.10;7.45;;;;;;;;;;7317547;19;154711;-15
2022/07/15 11:58:36;;;;;;;7.30;6.70;;;;;;;;;;7314956;19;162214;-15
2022/07/15 12:01:09;;;;;;;8.15;7.35;;;;;;;;;;7314713;19;162768;-15
2022/07/15 12:03:46;;;;;;;10.20;7.78;;;;;;;;;;7316795;19;154455;-15
2022/07/15 12:06:19;;;;;;;9.52;7.15;;;;;;;;;;7316986;19;154494;-15
2022/07/15 12:08:53;;;;;;;8.65;6.85;;;;;;;;;;7317025;19;162234;-12
2022/07/15 12:11:27;;;;;;;6.75;6.15;;;;;;;;;;7316562;19;162838;-14
2022/07/15 12:14:01;;;;;;;10.85;6.82;;;;;;;;;;7316914;19;154559;-15
2022/07/15 12:16:34;;;;;;;7.05;6.35;;;;;;;;;;7316442;19;154196;-15
2022/07/15 12:19:10;;;;;;;9.88;7.63;;;;;;;;;;7316422;19;162274;-15
2022/07/15 12:21:43;;;;;;;10.02;7.20;;;;;;;;;;7313416;19;163276;-15
2022/07/15 12:24:16;;;;;;;15.25;6.60;;;;;;;;;;7316757;19;154902;-15
2022/07/15 12:26:59;;;;;;;7.15;6.43;;;;;;;;;;7316472;19;154038;-15
2022/07/15 12:29:33;;;;;;;9.20;6.78;;;;;;;;;;7316654;19;162286;-15
2022/07/15 12:32:27;;;;;;;8.80;7.03;;;;;;;;;;7316222;19;162862;-12
2022/07/15 12:35:03;;;;;;;10.20;7.07;;;;;;;;;;7316187;19;154525;-15
2022/07/15 12:37:50;;;;;;;8.25;6.75;;;;;;;;;;7315704;19;153426;-15
2022/07/15 12:40:30;;;;;;;7.68;6.35;;;;;;;;;;7315362;19;162640;-15
2022/07/15 12:43:01;;;;;;;8.43;6.43;;;;;;;;;;7315347;19;162853;-15
2022/07/15 12:45:40;;;;;;;8.25;7.00;;;;;;;;;;7316184;19;153973;-15
2022/07/15 12:48:14;;;;;;;7.18;6.47;;;;;;;;;;7315083;19;153601;-15
2022/07/15 12:51:04;;;;;;;7.72;6.38;;;;;;;;;;7314348;19;163094;-15
2022/07/15 12:53:41;;;;;;;7.53;6.80;;;;;;;;;;7315563;19;162796;-15
2022/07/15 12:56:12;;;;;;;8.60;7.40;;;;;;;;;;7316116;19;154397;-15
2022/07/15 12:58:43;;;;;;;7.53;6.80;;;;;;;;;;7315738;19;154051;-15
2022/07/15 13:01:17;;;;;;;7.85;6.38;;;;;;;;;;7314245;19;162310;-15
2022/07/15 13:03:47;;;;;;;;;;;;;;;;;;7315255;19;163212;-15
2022/07/15 13:06:21;;;;;;;7.63;6.80;;;;;;;;;;7314127;19;154769;-15
2022/07/15 13:08:52;;;;;;;8.32;6.55;;;;;;;;;;7314155;19;154003;-15
2022/07/15 13:11:27;;;;;;;7.43;6.13;;;;;;;;;;7315068;19;162187;-15
2022/07/15 13:13:58;;;;;;;7.25;6.30;;;;;;;;;;7315138;19;163333;-15
2022/07/15 13:16:29;;;;;;;7.35;6.25;;;;;;;;;;7315396;19;155024;-15
2022/07/15 13:19:00;;;;;;;7.45;6.53;;;;;;;;;;7314976;19;153953;-15
2022/07/15 13:21:34;;;;;;;7.18;6.47;;;;;;;;;;7312496;19;162259;-15
2022/07/15 13:24:07;;;;;;;7.40;6.18;;;;;;;;;;7314674;19;162865;-15
2022/07/15 13:26:38;;;;;;;6.55;5.95;;;;;;;;;;7316001;19;154620;-15
2022/07/15 13:29:09;;;;;;;8.68;6.63;;;;;;;;;;7315119;19;154269;-14
2022/07/15 13:31:40;;;;;;;6.82;6.18;;;;;;;;;;7314704;19;162287;-13
2022/07/15 13:34:12;;;;;;;7.85;6.60;;;;;;;;;;7314583;19;163417;-13
2022/07/15 13:36:46;;;;;;;9.50;6.07;;;;;;;;;;7315156;19;154450;-13
2022/07/15 13:39:17;;;;;;;7.68;6.18;;;;;;;;;;7310829;19;154404;-13
2022/07/15 13:41:51;;;;;;;7.72;5.75;;;;;;;;;;7312302;19;162261;-13
2022/07/15 13:44:23;;;;;;;7.60;6.43;;;;;;;;;;7312274;19;162862;-13
2022/07/15 13:46:54;;;;;;;7.47;6.18;;;;;;;;;;7315020;19;154528;-13
2022/07/15 13:52:13;;;;;;;6.07;5.47;;;;;;;;;;7312317;19;162691;-13
2022/07/15 13:54:45;;;;;;;7.43;5.22;;;;;;;;;;7314522;19;162764;-13
2022/07/15 13:57:16;;;;;;;13.13;6.38;;;;;;;;;;7314330;19;154448;-13
2022/07/15 13:59:47;;;;;;;13.50;6.60;;;;;;;;;;7312365;19;154004;-14
2022/07/15 14:02:18;;;;;;;12.95;6.53;;;;;;;;;;7309291;19;162198;-13
2022/07/15 14:04:50;;;;;;;9.55;6.68;;;;;;;;;;7313506;19;163627;-13
2022/07/15 14:07:24;;;;;;;11.68;6.35;;;;;;;;;;7313950;19;154789;-13
2022/07/15 14:09:55;;;;;;;13.52;6.45;;;;;;;;;;7313803;19;154632;-13
2022/07/15 14:12:26;;;;;;;12.10;6.65;;;;;;;;;;7313376;19;162292;-14
2022/07/15 14:14:59;;;;;;;14.07;6.15;;;;;;;;;;7313315;19;163079;-14
2022/07/15 14:17:30;;;;;;;10.73;6.07;;;;;;;;;;7314003;19;154434;-14
2022/07/15 14:20:02;;;;;;;13.73;6.07;;;;;;;;;;7311678;19;153915;-14
2022/07/15 14:22:36;;;;;;;15.17;6.83;;;;;;;;;;7311234;19;162704;-14
2022/07/15 14:25:08;;;;;;;11.88;6.47;;;;;;;;;;7313040;19;162915;-14
2022/07/15 14:27:40;;;;;;;13.70;7.30;;;;;;;;;;7313295;19;154947;-14
2022/07/15 14:30:13;;;;;;;13.70;5.95;;;;;;;;;;7311699;19;154362;-14
2022/07/15 14:32:44;;;;;;;10.27;5.85;;;;;;;;;;7313286;19;163289;-14
2022/07/15 14:35:16;;;;;;;11.00;5.65;;;;;;;;;;7313186;19;162793;-14
2022/07/15 14:37:49;;;;;;;9.48;6.32;;;;;;;;;;7311645;19;154539;-14
2022/07/15 14:40:21;;;;;;;11.07;5.70;;;;;;;;;;7312868;19;153960;-14
2022/07/15 14:42:52;;;;;;;12.18;5.85;;;;;;;;;;7310666;19;162275;-15
2022/07/15 14:45:27;;;;;;;10.35;5.85;;;;;;;;;;7311082;19;163279;-14
2022/07/15 14:47:58;;;;;;;13.48;6.40;;;;;;;;;;7312986;19;154440;-14
2022/07/15 14:50:34;;;;;;;9.95;5.55;;;;;;;;;;7310685;19;154035;-14
2022/07/15 14:53:08;;;;;;;11.80;6.13;;;;;;;;;;7310168;19;162351;-14
2022/07/15 14:55:39;;;;;;;13.23;6.32;;;;;;;;;;7312070;19;162897;-14
2022/07/15 14:58:12;;;;;;;11.32;6.07;;;;;;;;;;7312119;19;154940;-14
2022/07/15 15:00:45;;;;;;;12.95;6.40;;;;;;;;;;7312494;19;153981;-14
2022/07/15 15:03:17;;;;;;;14.85;6.13;;;;;;;;;;7308991;19;162793;-14
2022/07/15 15:06:00;;;;;;;;;;;;;;;;;;;;;
2022/07/15 15:08:34;;;;;;;10.75;5.68;;;;;;;;;;7312346;19;155202;-14
2022/07/15 15:11:06;;;;;;;11.05;6.20;;;;;;;;;;7312040;19;154087;-14
2022/07/15 15:13:37;;;;;;;14.88;6.50;;;;;;;;;;7308369;19;162637;-14
2022/07/15 15:16:08;;;;;;;8.65;5.72;;;;;;;;;;7311545;19;163280;-14
2022/07/15 15:18:40;;;;;;;9.38;6.10;;;;;;;;;;7312114;19;154435;-14
2022/07/15 15:21:11;;;;;;;9.43;6.13;;;;;;;;;;7311877;19;153981;-14
2022/07/15 15:23:45;;;;;;;11.57;5.38;;;;;;;;;;7309095;19;162706;-14
2022/07/15 15:26:26;;;;;;;11.43;6.20;;;;;;;;;;7310294;19;163227;-14
2022/07/15 15:29:00;;;;;;;10.07;5.57;;;;;;;;;;7311971;19;154512;-14
2022/07/15 15:31:31;;;;;;;7.63;5.20;;;;;;;;;;7309579;19;154090;-14